<?xml version='1.0' encoding='UTF-8'?>
<gpx version="1.1" creator="https://www.komoot.de" xmlns="http://www.topografix.com/GPX/1/1" xmlns:xsi="http://www.w3.org/2001/XMLSchema-instance" xsi:schemaLocation="http://www.topografix.com/GPX/1/1 http://www.topografix.com/GPX/1/1/gpx.xsd">
  <metadata>
    <name>WF Baar Tuningen: Permanenter Wanderweg "Himmelbergrunde" 11 km</name>
    <author>
      <link href="https://www.komoot.de">
        <text>komoot</text>
        <type>text/html</type>
      </link>
    </author>
  </metadata>
  <trk>
    <name>WF Baar Tuningen: Permanenter Wanderweg "Himmelbergrunde" 11 km</name>
    <trkseg>
      <trkpt lat="47.999862" lon="8.633315">
        <ele>842.742385</ele>
        <time>2021-07-19T07:36:21.800Z</time>
      </trkpt>
      <trkpt lat="47.999851" lon="8.633108">
        <ele>842.742385</ele>
        <time>2021-07-19T07:36:36.130Z</time>
      </trkpt>
      <trkpt lat="47.999579" lon="8.633077">
        <ele>842.742385</ele>
        <time>2021-07-19T07:37:04.530Z</time>
      </trkpt>
      <trkpt lat="47.999527" lon="8.633094">
        <ele>842.742385</ele>
        <time>2021-07-19T07:37:10.210Z</time>
      </trkpt>
      <trkpt lat="47.999434" lon="8.633084">
        <ele>842.742385</ele>
        <time>2021-07-19T07:37:20.606Z</time>
      </trkpt>
      <trkpt lat="47.999308" lon="8.633025">
        <ele>842.742385</ele>
        <time>2021-07-19T07:37:35.273Z</time>
      </trkpt>
      <trkpt lat="47.999272" lon="8.632783">
        <ele>842.742385</ele>
        <time>2021-07-19T07:37:52.810Z</time>
      </trkpt>
      <trkpt lat="47.999269" lon="8.632760">
        <ele>842.742385</ele>
        <time>2021-07-19T07:37:54.446Z</time>
      </trkpt>
      <trkpt lat="47.999264" lon="8.632385">
        <ele>841.770490</ele>
        <time>2021-07-19T07:38:22.118Z</time>
      </trkpt>
      <trkpt lat="47.999355" lon="8.631961">
        <ele>840.474651</ele>
        <time>2021-07-19T07:38:56.260Z</time>
      </trkpt>
      <trkpt lat="47.999363" lon="8.631770">
        <ele>839.917717</ele>
        <time>2021-07-19T07:39:09.725Z</time>
      </trkpt>
      <trkpt lat="47.999374" lon="8.631517">
        <ele>839.179886</ele>
        <time>2021-07-19T07:39:29.566Z</time>
      </trkpt>
      <trkpt lat="47.999345" lon="8.631377">
        <ele>838.753384</ele>
        <time>2021-07-19T07:39:40.117Z</time>
      </trkpt>
      <trkpt lat="47.999339" lon="8.631361">
        <ele>838.700007</ele>
        <time>2021-07-19T07:39:41.404Z</time>
      </trkpt>
      <trkpt lat="47.999303" lon="8.631264">
        <ele>838.377206</ele>
        <time>2021-07-19T07:39:49.095Z</time>
      </trkpt>
      <trkpt lat="47.999250" lon="8.631176">
        <ele>838.032650</ele>
        <time>2021-07-19T07:39:57.762Z</time>
      </trkpt>
      <trkpt lat="47.999204" lon="8.631179">
        <ele>837.832399</ele>
        <time>2021-07-19T07:40:03.536Z</time>
      </trkpt>
      <trkpt lat="47.999066" lon="8.631301">
        <ele>837.135063</ele>
        <time>2021-07-19T07:40:20.960Z</time>
      </trkpt>
      <trkpt lat="47.998814" lon="8.631747">
        <ele>835.436276</ele>
        <time>2021-07-19T07:41:02.031Z</time>
      </trkpt>
      <trkpt lat="47.998681" lon="8.631832">
        <ele>834.909788</ele>
        <time>2021-07-19T07:41:17.383Z</time>
      </trkpt>
      <trkpt lat="47.998636" lon="8.631803">
        <ele>834.890836</ele>
        <time>2021-07-19T07:41:22.795Z</time>
      </trkpt>
      <trkpt lat="47.998603" lon="8.631727">
        <ele>834.867391</ele>
        <time>2021-07-19T07:41:29.874Z</time>
      </trkpt>
      <trkpt lat="47.998558" lon="8.631841">
        <ele>834.833139</ele>
        <time>2021-07-19T07:41:39.206Z</time>
      </trkpt>
      <trkpt lat="47.998571" lon="8.632008">
        <ele>834.789631</ele>
        <time>2021-07-19T07:41:50.633Z</time>
      </trkpt>
      <trkpt lat="47.998651" lon="8.631950">
        <ele>834.755243</ele>
        <time>2021-07-19T07:42:00.645Z</time>
      </trkpt>
      <trkpt lat="47.998680" lon="8.632090">
        <ele>834.717318</ele>
        <time>2021-07-19T07:42:11.346Z</time>
      </trkpt>
      <trkpt lat="47.998727" lon="8.632120">
        <ele>834.697553</ele>
        <time>2021-07-19T07:42:16.697Z</time>
      </trkpt>
      <trkpt lat="47.998769" lon="8.632165">
        <ele>834.677567</ele>
        <time>2021-07-19T07:42:22.109Z</time>
      </trkpt>
      <trkpt lat="47.998725" lon="8.632596">
        <ele>834.564741</ele>
        <time>2021-07-19T07:42:52.802Z</time>
      </trkpt>
      <trkpt lat="47.998738" lon="8.634103">
        <ele>834.500986</ele>
        <time>2021-07-19T07:44:40.225Z</time>
      </trkpt>
      <trkpt lat="47.998656" lon="8.634474">
        <ele>835.066528</ele>
        <time>2021-07-19T07:45:08.742Z</time>
      </trkpt>
      <trkpt lat="47.998604" lon="8.634626">
        <ele>835.313628</ele>
        <time>2021-07-19T07:45:21.986Z</time>
      </trkpt>
      <trkpt lat="47.998508" lon="8.634780">
        <ele>835.618278</ele>
        <time>2021-07-19T07:45:37.041Z</time>
      </trkpt>
      <trkpt lat="47.998207" lon="8.635046">
        <ele>836.374703</ele>
        <time>2021-07-19T07:46:15.286Z</time>
      </trkpt>
      <trkpt lat="47.997385" lon="8.635640">
        <ele>838.059190</ele>
        <time>2021-07-19T07:47:53.983Z</time>
      </trkpt>
      <trkpt lat="47.997248" lon="8.635732">
        <ele>837.982104</ele>
        <time>2021-07-19T07:48:09.834Z</time>
      </trkpt>
      <trkpt lat="47.996495" lon="8.636076">
        <ele>837.577988</ele>
        <time>2021-07-19T07:49:28.893Z</time>
      </trkpt>
      <trkpt lat="47.996238" lon="8.636097">
        <ele>837.445891</ele>
        <time>2021-07-19T07:49:55.018Z</time>
      </trkpt>
      <trkpt lat="47.996123" lon="8.636246">
        <ele>837.367774</ele>
        <time>2021-07-19T07:50:10.675Z</time>
      </trkpt>
      <trkpt lat="47.996098" lon="8.636376">
        <ele>837.321320</ele>
        <time>2021-07-19T07:50:19.897Z</time>
      </trkpt>
      <trkpt lat="47.996023" lon="8.636379">
        <ele>837.282814</ele>
        <time>2021-07-19T07:50:27.647Z</time>
      </trkpt>
      <trkpt lat="47.995939" lon="8.636379">
        <ele>837.239702</ele>
        <time>2021-07-19T07:50:36.726Z</time>
      </trkpt>
      <trkpt lat="47.995824" lon="8.636366">
        <ele>837.096690</ele>
        <time>2021-07-19T07:50:48.981Z</time>
      </trkpt>
      <trkpt lat="47.995694" lon="8.636353">
        <ele>836.533072</ele>
        <time>2021-07-19T07:51:02.751Z</time>
      </trkpt>
      <trkpt lat="47.995689" lon="8.636753">
        <ele>835.374949</ele>
        <time>2021-07-19T07:51:31.867Z</time>
      </trkpt>
      <trkpt lat="47.995621" lon="8.636885">
        <ele>834.892725</ele>
        <time>2021-07-19T07:51:43.762Z</time>
      </trkpt>
      <trkpt lat="47.994907" lon="8.636858">
        <ele>831.803077</ele>
        <time>2021-07-19T07:53:01.968Z</time>
      </trkpt>
      <trkpt lat="47.994864" lon="8.636858">
        <ele>831.617065</ele>
        <time>2021-07-19T07:53:06.970Z</time>
      </trkpt>
      <trkpt lat="47.994964" lon="8.637322">
        <ele>830.205917</ele>
        <time>2021-07-19T07:53:43.104Z</time>
      </trkpt>
      <trkpt lat="47.995235" lon="8.638590">
        <ele>827.467179</ele>
        <time>2021-07-19T07:55:22.184Z</time>
      </trkpt>
      <trkpt lat="47.995524" lon="8.639752">
        <ele>825.186327</ele>
        <time>2021-07-19T07:56:49.663Z</time>
      </trkpt>
      <trkpt lat="47.995538" lon="8.639858">
        <ele>824.987535</ele>
        <time>2021-07-19T07:56:57.005Z</time>
      </trkpt>
      <trkpt lat="47.995505" lon="8.639936">
        <ele>824.817747</ele>
        <time>2021-07-19T07:57:03.580Z</time>
      </trkpt>
      <trkpt lat="47.996155" lon="8.642665">
        <ele>828.474323</ele>
        <time>2021-07-19T08:00:34.851Z</time>
      </trkpt>
      <trkpt lat="47.995671" lon="8.642899">
        <ele>830.353681</ele>
        <time>2021-07-19T08:01:32.820Z</time>
      </trkpt>
      <trkpt lat="47.995081" lon="8.643246">
        <ele>832.696139</ele>
        <time>2021-07-19T08:02:44.763Z</time>
      </trkpt>
      <trkpt lat="47.995534" lon="8.645115">
        <ele>837.851786</ele>
        <time>2021-07-19T08:05:16.051Z</time>
      </trkpt>
      <trkpt lat="47.995291" lon="8.645245">
        <ele>838.896066</ele>
        <time>2021-07-19T08:05:45.704Z</time>
      </trkpt>
      <trkpt lat="47.995353" lon="8.646241">
        <ele>841.604413</ele>
        <time>2021-07-19T08:07:03.799Z</time>
      </trkpt>
      <trkpt lat="47.995441" lon="8.647142">
        <ele>843.614672</ele>
        <time>2021-07-19T08:08:12.276Z</time>
      </trkpt>
      <trkpt lat="47.995620" lon="8.647562">
        <ele>844.605502</ele>
        <time>2021-07-19T08:08:49.088Z</time>
      </trkpt>
      <trkpt lat="47.995638" lon="8.647697">
        <ele>844.879410</ele>
        <time>2021-07-19T08:09:00.093Z</time>
      </trkpt>
      <trkpt lat="47.995607" lon="8.647764">
        <ele>845.041493</ele>
        <time>2021-07-19T08:09:05.723Z</time>
      </trkpt>
      <trkpt lat="47.994987" lon="8.647892">
        <ele>846.902578</ele>
        <time>2021-07-19T08:10:14.127Z</time>
      </trkpt>
      <trkpt lat="47.994766" lon="8.647997">
        <ele>847.592138</ele>
        <time>2021-07-19T08:10:38.854Z</time>
      </trkpt>
      <trkpt lat="47.994217" lon="8.648515">
        <ele>848.938301</ele>
        <time>2021-07-19T08:11:49.122Z</time>
      </trkpt>
      <trkpt lat="47.994058" lon="8.648758">
        <ele>849.397579</ele>
        <time>2021-07-19T08:12:13.337Z</time>
      </trkpt>
      <trkpt lat="47.993817" lon="8.649261">
        <ele>850.233594</ele>
        <time>2021-07-19T08:12:57.432Z</time>
      </trkpt>
      <trkpt lat="47.993769" lon="8.649845">
        <ele>851.028746</ele>
        <time>2021-07-19T08:13:39.412Z</time>
      </trkpt>
      <trkpt lat="47.993425" lon="8.650614">
        <ele>854.074998</ele>
        <time>2021-07-19T08:14:44.566Z</time>
      </trkpt>
      <trkpt lat="47.992801" lon="8.652379">
        <ele>861.950196</ele>
        <time>2021-07-19T08:17:28.578Z</time>
      </trkpt>
      <trkpt lat="47.992666" lon="8.652576">
        <ele>864.880714</ele>
        <time>2021-07-19T08:17:53.284Z</time>
      </trkpt>
      <trkpt lat="47.993274" lon="8.653080">
        <ele>875.678828</ele>
        <time>2021-07-19T08:19:46.383Z</time>
      </trkpt>
      <trkpt lat="47.994042" lon="8.653666">
        <ele>889.071146</ele>
        <time>2021-07-19T08:22:27.785Z</time>
      </trkpt>
      <trkpt lat="47.994319" lon="8.653872">
        <ele>894.104437</ele>
        <time>2021-07-19T08:23:30.802Z</time>
      </trkpt>
      <trkpt lat="47.994769" lon="8.654416">
        <ele>903.596676</ele>
        <time>2021-07-19T08:25:17.654Z</time>
      </trkpt>
      <trkpt lat="47.995402" lon="8.654866">
        <ele>915.092309</ele>
        <time>2021-07-19T08:27:15.952Z</time>
      </trkpt>
      <trkpt lat="47.995655" lon="8.654207">
        <ele>921.242892</ele>
        <time>2021-07-19T08:28:31.956Z</time>
      </trkpt>
      <trkpt lat="47.995735" lon="8.653825">
        <ele>923.310961</ele>
        <time>2021-07-19T08:29:08.308Z</time>
      </trkpt>
      <trkpt lat="47.995847" lon="8.653550">
        <ele>924.974254</ele>
        <time>2021-07-19T08:29:34.720Z</time>
      </trkpt>
      <trkpt lat="47.995923" lon="8.653364">
        <ele>926.100238</ele>
        <time>2021-07-19T08:29:54.475Z</time>
      </trkpt>
      <trkpt lat="47.996012" lon="8.653295">
        <ele>926.874366</ele>
        <time>2021-07-19T08:30:06.481Z</time>
      </trkpt>
      <trkpt lat="47.996321" lon="8.653387">
        <ele>929.307001</ele>
        <time>2021-07-19T08:30:45.245Z</time>
      </trkpt>
      <trkpt lat="47.996422" lon="8.653521">
        <ele>930.349793</ele>
        <time>2021-07-19T08:31:00.159Z</time>
      </trkpt>
      <trkpt lat="47.996456" lon="8.653672">
        <ele>931.172932</ele>
        <time>2021-07-19T08:31:12.167Z</time>
      </trkpt>
      <trkpt lat="47.996444" lon="8.653773">
        <ele>931.702922</ele>
        <time>2021-07-19T08:31:22.357Z</time>
      </trkpt>
      <trkpt lat="47.996343" lon="8.653666">
        <ele>932.658807</ele>
        <time>2021-07-19T08:31:35.120Z</time>
      </trkpt>
      <trkpt lat="47.996243" lon="8.653644">
        <ele>933.165934</ele>
        <time>2021-07-19T08:31:45.745Z</time>
      </trkpt>
      <trkpt lat="47.996027" lon="8.653859">
        <ele>933.022498</ele>
        <time>2021-07-19T08:32:14.301Z</time>
      </trkpt>
      <trkpt lat="47.996001" lon="8.654137">
        <ele>932.918682</ele>
        <time>2021-07-19T08:32:33.974Z</time>
      </trkpt>
      <trkpt lat="47.996020" lon="8.654198">
        <ele>932.893798</ele>
        <time>2021-07-19T08:32:40.110Z</time>
      </trkpt>
      <trkpt lat="47.996185" lon="8.654674">
        <ele>932.695536</ele>
        <time>2021-07-19T08:33:16.930Z</time>
      </trkpt>
      <trkpt lat="47.996722" lon="8.656571">
        <ele>929.481778</ele>
        <time>2021-07-19T08:35:44.362Z</time>
      </trkpt>
      <trkpt lat="47.997495" lon="8.658987">
        <ele>918.193703</ele>
        <time>2021-07-19T08:39:08.510Z</time>
      </trkpt>
      <trkpt lat="47.998142" lon="8.660294">
        <ele>909.878938</ele>
        <time>2021-07-19T08:41:17.158Z</time>
      </trkpt>
      <trkpt lat="47.998789" lon="8.661488">
        <ele>907.408839</ele>
        <time>2021-07-19T08:43:11.289Z</time>
      </trkpt>
      <trkpt lat="47.999009" lon="8.662032">
        <ele>907.116514</ele>
        <time>2021-07-19T08:43:55.415Z</time>
      </trkpt>
      <trkpt lat="47.999433" lon="8.662729">
        <ele>906.824363</ele>
        <time>2021-07-19T08:45:06.349Z</time>
      </trkpt>
      <trkpt lat="47.999508" lon="8.662610">
        <ele>907.238221</ele>
        <time>2021-07-19T08:45:22.598Z</time>
      </trkpt>
      <trkpt lat="47.999675" lon="8.662630">
        <ele>907.872078</ele>
        <time>2021-07-19T08:45:41.424Z</time>
      </trkpt>
      <trkpt lat="48.000025" lon="8.662972">
        <ele>909.454207</ele>
        <time>2021-07-19T08:46:32.705Z</time>
      </trkpt>
      <trkpt lat="48.000411" lon="8.663499">
        <ele>911.432270</ele>
        <time>2021-07-19T08:47:36.047Z</time>
      </trkpt>
      <trkpt lat="48.000826" lon="8.664516">
        <ele>911.809386</ele>
        <time>2021-07-19T08:48:57.706Z</time>
      </trkpt>
      <trkpt lat="48.000962" lon="8.664741">
        <ele>910.417485</ele>
        <time>2021-07-19T08:49:19.155Z</time>
      </trkpt>
      <trkpt lat="48.001224" lon="8.665003">
        <ele>908.254747</ele>
        <time>2021-07-19T08:49:53.780Z</time>
      </trkpt>
      <trkpt lat="48.001567" lon="8.665273">
        <ele>905.595114</ele>
        <time>2021-07-19T08:50:39.927Z</time>
      </trkpt>
      <trkpt lat="48.002033" lon="8.665987">
        <ele>900.943844</ele>
        <time>2021-07-19T08:52:02.050Z</time>
      </trkpt>
      <trkpt lat="48.002314" lon="8.666624">
        <ele>895.786392</ele>
        <time>2021-07-19T08:53:04.180Z</time>
      </trkpt>
      <trkpt lat="48.002496" lon="8.666775">
        <ele>893.683424</ele>
        <time>2021-07-19T08:53:29.774Z</time>
      </trkpt>
      <trkpt lat="48.002933" lon="8.668347">
        <ele>882.271731</ele>
        <time>2021-07-19T08:55:45.250Z</time>
      </trkpt>
      <trkpt lat="48.003285" lon="8.669598">
        <ele>874.156683</ele>
        <time>2021-07-19T08:57:31.406Z</time>
      </trkpt>
      <trkpt lat="48.003758" lon="8.670779">
        <ele>866.323395</ele>
        <time>2021-07-19T08:59:21.609Z</time>
      </trkpt>
      <trkpt lat="48.003911" lon="8.670986">
        <ele>865.212259</ele>
        <time>2021-07-19T08:59:45.531Z</time>
      </trkpt>
      <trkpt lat="48.004122" lon="8.671138">
        <ele>863.951155</ele>
        <time>2021-07-19T09:00:12.283Z</time>
      </trkpt>
      <trkpt lat="48.004472" lon="8.670735">
        <ele>861.572387</ele>
        <time>2021-07-19T09:01:02.440Z</time>
      </trkpt>
      <trkpt lat="48.004209" lon="8.670568">
        <ele>860.033894</ele>
        <time>2021-07-19T09:01:33.736Z</time>
      </trkpt>
      <trkpt lat="48.004076" lon="8.670270">
        <ele>858.743485</ele>
        <time>2021-07-19T09:01:59.867Z</time>
      </trkpt>
      <trkpt lat="48.003826" lon="8.668131">
        <ele>857.831002</ele>
        <time>2021-07-19T09:04:26.127Z</time>
      </trkpt>
      <trkpt lat="48.003707" lon="8.665132">
        <ele>860.791427</ele>
        <time>2021-07-19T09:08:04.571Z</time>
      </trkpt>
      <trkpt lat="48.003351" lon="8.662863">
        <ele>861.221010</ele>
        <time>2021-07-19T09:10:45.043Z</time>
      </trkpt>
      <trkpt lat="48.003066" lon="8.660787">
        <ele>858.634017</ele>
        <time>2021-07-19T09:13:13.699Z</time>
      </trkpt>
      <trkpt lat="48.002711" lon="8.659882">
        <ele>856.449345</ele>
        <time>2021-07-19T09:14:29.573Z</time>
      </trkpt>
      <trkpt lat="48.002276" lon="8.659122">
        <ele>854.164792</ele>
        <time>2021-07-19T09:15:42.023Z</time>
      </trkpt>
      <trkpt lat="48.002128" lon="8.658703">
        <ele>852.988708</ele>
        <time>2021-07-19T09:16:16.322Z</time>
      </trkpt>
      <trkpt lat="48.002190" lon="8.657956">
        <ele>851.120268</ele>
        <time>2021-07-19T09:17:10.786Z</time>
      </trkpt>
      <trkpt lat="48.002205" lon="8.657771">
        <ele>850.657695</ele>
        <time>2021-07-19T09:17:24.313Z</time>
      </trkpt>
      <trkpt lat="48.002163" lon="8.657020">
        <ele>848.787037</ele>
        <time>2021-07-19T09:18:18.259Z</time>
      </trkpt>
      <trkpt lat="48.002092" lon="8.656753">
        <ele>847.892894</ele>
        <time>2021-07-19T09:18:38.868Z</time>
      </trkpt>
      <trkpt lat="48.001885" lon="8.656226">
        <ele>845.967081</ele>
        <time>2021-07-19T09:19:22.878Z</time>
      </trkpt>
      <trkpt lat="48.001465" lon="8.655075">
        <ele>841.835450</ele>
        <time>2021-07-19T09:20:58.619Z</time>
      </trkpt>
      <trkpt lat="48.001187" lon="8.654251">
        <ele>838.451490</ele>
        <time>2021-07-19T09:22:09.293Z</time>
      </trkpt>
      <trkpt lat="48.001182" lon="8.653930">
        <ele>837.082077</ele>
        <time>2021-07-19T09:22:34.287Z</time>
      </trkpt>
      <trkpt lat="48.001236" lon="8.653564">
        <ele>835.483617</ele>
        <time>2021-07-19T09:23:03.084Z</time>
      </trkpt>
      <trkpt lat="48.001343" lon="8.653272">
        <ele>834.063737</ele>
        <time>2021-07-19T09:23:27.732Z</time>
      </trkpt>
      <trkpt lat="48.001579" lon="8.652890">
        <ele>831.846290</ele>
        <time>2021-07-19T09:24:07.235Z</time>
      </trkpt>
      <trkpt lat="48.001746" lon="8.652769">
        <ele>830.663338</ele>
        <time>2021-07-19T09:24:29.185Z</time>
      </trkpt>
      <trkpt lat="48.001843" lon="8.652710">
        <ele>829.995819</ele>
        <time>2021-07-19T09:24:40.290Z</time>
      </trkpt>
      <trkpt lat="48.001919" lon="8.652601">
        <ele>829.324425</ele>
        <time>2021-07-19T09:24:51.891Z</time>
      </trkpt>
      <trkpt lat="48.001959" lon="8.652428">
        <ele>828.658782</ele>
        <time>2021-07-19T09:25:06.227Z</time>
      </trkpt>
      <trkpt lat="48.001783" lon="8.651477">
        <ele>826.273820</ele>
        <time>2021-07-19T09:26:18.436Z</time>
      </trkpt>
      <trkpt lat="48.001839" lon="8.650680">
        <ele>824.336801</ele>
        <time>2021-07-19T09:27:16.047Z</time>
      </trkpt>
      <trkpt lat="48.001950" lon="8.650120">
        <ele>822.925085</ele>
        <time>2021-07-19T09:27:55.357Z</time>
      </trkpt>
      <trkpt lat="48.002435" lon="8.648465">
        <ele>818.123826</ele>
        <time>2021-07-19T09:30:04.740Z</time>
      </trkpt>
      <trkpt lat="48.002651" lon="8.647187">
        <ele>814.643878</ele>
        <time>2021-07-19T09:31:42.816Z</time>
      </trkpt>
      <trkpt lat="48.002811" lon="8.647282">
        <ele>814.054854</ele>
        <time>2021-07-19T09:32:03.067Z</time>
      </trkpt>
      <trkpt lat="48.003253" lon="8.647624">
        <ele>812.352001</ele>
        <time>2021-07-19T09:32:57.789Z</time>
      </trkpt>
      <trkpt lat="48.003386" lon="8.647607">
        <ele>811.895307</ele>
        <time>2021-07-19T09:33:12.837Z</time>
      </trkpt>
      <trkpt lat="48.003456" lon="8.647533">
        <ele>811.601963</ele>
        <time>2021-07-19T09:33:22.842Z</time>
      </trkpt>
      <trkpt lat="48.004202" lon="8.645489">
        <ele>812.436048</ele>
        <time>2021-07-19T09:36:00.080Z</time>
      </trkpt>
      <trkpt lat="48.004409" lon="8.644997">
        <ele>814.215437</ele>
        <time>2021-07-19T09:36:48.427Z</time>
      </trkpt>
      <trkpt lat="48.004795" lon="8.644294">
        <ele>816.999731</ele>
        <time>2021-07-19T09:38:06.087Z</time>
      </trkpt>
      <trkpt lat="48.004885" lon="8.644257">
        <ele>817.835347</ele>
        <time>2021-07-19T09:38:19.709Z</time>
      </trkpt>
      <trkpt lat="48.004986" lon="8.643567">
        <ele>823.072636</ele>
        <time>2021-07-19T09:39:22.412Z</time>
      </trkpt>
      <trkpt lat="48.005024" lon="8.643334">
        <ele>824.850892</ele>
        <time>2021-07-19T09:39:45.419Z</time>
      </trkpt>
      <trkpt lat="48.005082" lon="8.643153">
        <ele>826.338972</ele>
        <time>2021-07-19T09:40:04.621Z</time>
      </trkpt>
      <trkpt lat="48.005405" lon="8.643097">
        <ele>829.942606</ele>
        <time>2021-07-19T09:40:52.546Z</time>
      </trkpt>
      <trkpt lat="48.006146" lon="8.643892">
        <ele>839.251294</ele>
        <time>2021-07-19T09:43:03.818Z</time>
      </trkpt>
      <trkpt lat="48.006486" lon="8.643801">
        <ele>842.051003</ele>
        <time>2021-07-19T09:43:49.136Z</time>
      </trkpt>
      <trkpt lat="48.006862" lon="8.643513">
        <ele>845.475553</ele>
        <time>2021-07-19T09:44:42.935Z</time>
      </trkpt>
      <trkpt lat="48.007069" lon="8.643354">
        <ele>847.361981</ele>
        <time>2021-07-19T09:45:11.033Z</time>
      </trkpt>
      <trkpt lat="48.007145" lon="8.643333">
        <ele>847.988438</ele>
        <time>2021-07-19T09:45:20.119Z</time>
      </trkpt>
      <trkpt lat="48.007175" lon="8.643334">
        <ele>848.231663</ele>
        <time>2021-07-19T09:45:24.714Z</time>
      </trkpt>
      <trkpt lat="48.006984" lon="8.642915">
        <ele>850.981145</ele>
        <time>2021-07-19T09:46:05.085Z</time>
      </trkpt>
      <trkpt lat="48.006386" lon="8.641950">
        <ele>855.993153</ele>
        <time>2021-07-19T09:47:49.457Z</time>
      </trkpt>
      <trkpt lat="48.006215" lon="8.641483">
        <ele>857.932607</ele>
        <time>2021-07-19T09:48:32.012Z</time>
      </trkpt>
      <trkpt lat="48.006029" lon="8.640738">
        <ele>860.829526</ele>
        <time>2021-07-19T09:49:35.455Z</time>
      </trkpt>
      <trkpt lat="48.006074" lon="8.640713">
        <ele>861.090937</ele>
        <time>2021-07-19T09:49:40.239Z</time>
      </trkpt>
      <trkpt lat="48.006334" lon="8.640390">
        <ele>862.639387</ele>
        <time>2021-07-19T09:50:14.164Z</time>
      </trkpt>
      <trkpt lat="48.006385" lon="8.639626">
        <ele>864.886019</ele>
        <time>2021-07-19T09:51:05.791Z</time>
      </trkpt>
      <trkpt lat="48.006348" lon="8.639224">
        <ele>866.073385</ele>
        <time>2021-07-19T09:51:33.060Z</time>
      </trkpt>
      <trkpt lat="48.006256" lon="8.638621">
        <ele>867.883115</ele>
        <time>2021-07-19T09:52:14.613Z</time>
      </trkpt>
      <trkpt lat="48.006083" lon="8.637818">
        <ele>869.508348</ele>
        <time>2021-07-19T09:53:11.277Z</time>
      </trkpt>
      <trkpt lat="48.005873" lon="8.636909">
        <ele>870.039449</ele>
        <time>2021-07-19T09:54:15.837Z</time>
      </trkpt>
      <trkpt lat="48.005666" lon="8.636776">
        <ele>870.225437</ele>
        <time>2021-07-19T09:54:38.396Z</time>
      </trkpt>
      <trkpt lat="48.005809" lon="8.636681">
        <ele>870.354612</ele>
        <time>2021-07-19T09:54:54.063Z</time>
      </trkpt>
      <trkpt lat="48.006079" lon="8.636612">
        <ele>870.580719</ele>
        <time>2021-07-19T09:55:21.477Z</time>
      </trkpt>
      <trkpt lat="48.006375" lon="8.636436">
        <ele>870.850013</ele>
        <time>2021-07-19T09:55:53.368Z</time>
      </trkpt>
      <trkpt lat="48.006346" lon="8.636393">
        <ele>870.888296</ele>
        <time>2021-07-19T09:55:57.463Z</time>
      </trkpt>
      <trkpt lat="48.006380" lon="8.636341">
        <ele>870.933886</ele>
        <time>2021-07-19T09:56:02.447Z</time>
      </trkpt>
      <trkpt lat="48.006841" lon="8.634101">
        <ele>872.403352</ele>
        <time>2021-07-19T09:58:46.150Z</time>
      </trkpt>
      <trkpt lat="48.007020" lon="8.633215">
        <ele>873.033752</ele>
        <time>2021-07-19T09:59:50.620Z</time>
      </trkpt>
      <trkpt lat="48.007263" lon="8.632433">
        <ele>873.628418</ele>
        <time>2021-07-19T10:00:50.559Z</time>
      </trkpt>
      <trkpt lat="48.007490" lon="8.631955">
        <ele>874.032693</ele>
        <time>2021-07-19T10:01:31.318Z</time>
      </trkpt>
      <trkpt lat="48.007517" lon="8.631759">
        <ele>874.170705</ele>
        <time>2021-07-19T10:01:45.039Z</time>
      </trkpt>
      <trkpt lat="48.007290" lon="8.630737">
        <ele>875.101142</ele>
        <time>2021-07-19T10:03:00.277Z</time>
      </trkpt>
      <trkpt lat="48.007361" lon="8.630697">
        <ele>875.204824</ele>
        <time>2021-07-19T10:03:08.278Z</time>
      </trkpt>
      <trkpt lat="48.007391" lon="8.630555">
        <ele>875.340960</ele>
        <time>2021-07-19T10:03:19.001Z</time>
      </trkpt>
      <trkpt lat="48.007428" lon="8.630234">
        <ele>875.638745</ele>
        <time>2021-07-19T10:03:41.820Z</time>
      </trkpt>
      <trkpt lat="48.007207" lon="8.629346">
        <ele>876.504914</ele>
        <time>2021-07-19T10:04:49.367Z</time>
      </trkpt>
      <trkpt lat="48.006483" lon="8.626245">
        <ele>878.447118</ele>
        <time>2021-07-19T10:08:39.311Z</time>
      </trkpt>
      <trkpt lat="48.006449" lon="8.626105">
        <ele>878.282433</ele>
        <time>2021-07-19T10:08:49.535Z</time>
      </trkpt>
      <trkpt lat="48.006289" lon="8.625376">
        <ele>877.434093</ele>
        <time>2021-07-19T10:09:42.166Z</time>
      </trkpt>
      <trkpt lat="48.006141" lon="8.624784">
        <ele>876.735294</ele>
        <time>2021-07-19T10:10:26.184Z</time>
      </trkpt>
      <trkpt lat="48.006445" lon="8.624563">
        <ele>876.176601</ele>
        <time>2021-07-19T10:11:01.658Z</time>
      </trkpt>
      <trkpt lat="48.004976" lon="8.622222">
        <ele>867.031119</ele>
        <time>2021-07-19T10:14:56.210Z</time>
      </trkpt>
      <trkpt lat="48.004867" lon="8.621944">
        <ele>865.704701</ele>
        <time>2021-07-19T10:15:20.354Z</time>
      </trkpt>
      <trkpt lat="48.004796" lon="8.621730">
        <ele>864.721403</ele>
        <time>2021-07-19T10:15:39.214Z</time>
      </trkpt>
      <trkpt lat="48.004580" lon="8.621623">
        <ele>863.321344</ele>
        <time>2021-07-19T10:16:04.297Z</time>
      </trkpt>
      <trkpt lat="48.004464" lon="8.621480">
        <ele>862.396194</ele>
        <time>2021-07-19T10:16:22.271Z</time>
      </trkpt>
      <trkpt lat="48.004286" lon="8.621243">
        <ele>860.929485</ele>
        <time>2021-07-19T10:16:48.523Z</time>
      </trkpt>
      <trkpt lat="48.003974" lon="8.620693">
        <ele>857.961123</ele>
        <time>2021-07-19T10:17:43.514Z</time>
      </trkpt>
      <trkpt lat="48.003866" lon="8.621241">
        <ele>855.893067</ele>
        <time>2021-07-19T10:18:26.788Z</time>
      </trkpt>
      <trkpt lat="48.003588" lon="8.622410">
        <ele>852.183037</ele>
        <time>2021-07-19T10:19:59.676Z</time>
      </trkpt>
      <trkpt lat="48.003506" lon="8.622563">
        <ele>851.596818</ele>
        <time>2021-07-19T10:20:13.971Z</time>
      </trkpt>
      <trkpt lat="48.003392" lon="8.622675">
        <ele>850.987080</ele>
        <time>2021-07-19T10:20:28.273Z</time>
      </trkpt>
      <trkpt lat="48.003258" lon="8.622807">
        <ele>850.269793</ele>
        <time>2021-07-19T10:20:45.732Z</time>
      </trkpt>
      <trkpt lat="48.002826" lon="8.623216">
        <ele>848.495912</ele>
        <time>2021-07-19T10:21:38.739Z</time>
      </trkpt>
      <trkpt lat="48.002683" lon="8.623358">
        <ele>848.358635</ele>
        <time>2021-07-19T10:21:57.148Z</time>
      </trkpt>
      <trkpt lat="48.002650" lon="8.623556">
        <ele>848.249469</ele>
        <time>2021-07-19T10:22:11.158Z</time>
      </trkpt>
      <trkpt lat="48.002513" lon="8.625155">
        <ele>847.387024</ele>
        <time>2021-07-19T10:24:01.629Z</time>
      </trkpt>
      <trkpt lat="48.002572" lon="8.626548">
        <ele>847.697026</ele>
        <time>2021-07-19T10:25:40.590Z</time>
      </trkpt>
      <trkpt lat="48.002648" lon="8.627875">
        <ele>848.407976</ele>
        <time>2021-07-19T10:27:13.756Z</time>
      </trkpt>
      <trkpt lat="48.001872" lon="8.628285">
        <ele>847.281075</ele>
        <time>2021-07-19T10:28:36.943Z</time>
      </trkpt>
      <trkpt lat="48.001142" lon="8.628654">
        <ele>845.514274</ele>
        <time>2021-07-19T10:29:58.804Z</time>
      </trkpt>
      <trkpt lat="48.000129" lon="8.629263">
        <ele>843.075153</ele>
        <time>2021-07-19T10:31:56.888Z</time>
      </trkpt>
      <trkpt lat="48.000003" lon="8.629382">
        <ele>842.748362</ele>
        <time>2021-07-19T10:32:13.000Z</time>
      </trkpt>
      <trkpt lat="47.999895" lon="8.629536">
        <ele>842.421086</ele>
        <time>2021-07-19T10:32:28.297Z</time>
      </trkpt>
      <trkpt lat="47.999789" lon="8.629914">
        <ele>841.819811</ele>
        <time>2021-07-19T10:32:56.703Z</time>
      </trkpt>
      <trkpt lat="47.999773" lon="8.629958">
        <ele>841.746345</ele>
        <time>2021-07-19T10:33:00.204Z</time>
      </trkpt>
      <trkpt lat="47.999761" lon="8.629992">
        <ele>841.689952</ele>
        <time>2021-07-19T10:33:03.121Z</time>
      </trkpt>
      <trkpt lat="47.999674" lon="8.630064">
        <ele>841.471913</ele>
        <time>2021-07-19T10:33:13.327Z</time>
      </trkpt>
      <trkpt lat="47.999539" lon="8.630034">
        <ele>841.172676</ele>
        <time>2021-07-19T10:33:27.836Z</time>
      </trkpt>
      <trkpt lat="47.999537" lon="8.630301">
        <ele>840.780947</ele>
        <time>2021-07-19T10:33:45.784Z</time>
      </trkpt>
      <trkpt lat="47.999359" lon="8.630808">
        <ele>840.537006</ele>
        <time>2021-07-19T10:34:24.744Z</time>
      </trkpt>
      <trkpt lat="47.999284" lon="8.631019">
        <ele>840.537006</ele>
        <time>2021-07-19T10:34:41.253Z</time>
      </trkpt>
      <trkpt lat="47.999250" lon="8.631176">
        <ele>840.537006</ele>
        <time>2021-07-19T10:34:53.558Z</time>
      </trkpt>
      <trkpt lat="47.999303" lon="8.631264">
        <ele>840.537006</ele>
        <time>2021-07-19T10:35:02.505Z</time>
      </trkpt>
      <trkpt lat="47.999339" lon="8.631361">
        <ele>840.537006</ele>
        <time>2021-07-19T10:35:10.660Z</time>
      </trkpt>
      <trkpt lat="47.999345" lon="8.631377">
        <ele>840.537006</ele>
        <time>2021-07-19T10:35:11.942Z</time>
      </trkpt>
      <trkpt lat="47.999374" lon="8.631517">
        <ele>840.537006</ele>
        <time>2021-07-19T10:35:21.890Z</time>
      </trkpt>
      <trkpt lat="47.999363" lon="8.631770">
        <ele>840.537006</ele>
        <time>2021-07-19T10:35:41.687Z</time>
      </trkpt>
      <trkpt lat="47.999355" lon="8.631961">
        <ele>840.537006</ele>
        <time>2021-07-19T10:35:55.137Z</time>
      </trkpt>
      <trkpt lat="47.999264" lon="8.632385">
        <ele>840.537006</ele>
        <time>2021-07-19T10:36:29.474Z</time>
      </trkpt>
      <trkpt lat="47.999269" lon="8.632760">
        <ele>840.537006</ele>
        <time>2021-07-19T10:36:57.378Z</time>
      </trkpt>
      <trkpt lat="47.999272" lon="8.632783">
        <ele>840.537006</ele>
        <time>2021-07-19T10:36:59.030Z</time>
      </trkpt>
      <trkpt lat="47.999308" lon="8.633025">
        <ele>840.537006</ele>
        <time>2021-07-19T10:37:17.089Z</time>
      </trkpt>
      <trkpt lat="47.999434" lon="8.633084">
        <ele>840.537006</ele>
        <time>2021-07-19T10:37:31.964Z</time>
      </trkpt>
      <trkpt lat="47.999527" lon="8.633094">
        <ele>840.537006</ele>
        <time>2021-07-19T10:37:42.707Z</time>
      </trkpt>
      <trkpt lat="47.999579" lon="8.633077">
        <ele>840.537006</ele>
        <time>2021-07-19T10:37:48.684Z</time>
      </trkpt>
      <trkpt lat="47.999851" lon="8.633108">
        <ele>840.537006</ele>
        <time>2021-07-19T10:38:17.832Z</time>
      </trkpt>
      <trkpt lat="47.999862" lon="8.633315">
        <ele>840.537006</ele>
        <time>2021-07-19T10:38:32.449Z</time>
      </trkpt>
    </trkseg>
  </trk>
</gpx>